Mollusk, Virginia
Current Conditions -  °F | °C
As of 7:35 AM on Thursday 23 Oct 2014 (Local Time) from KW75 Reporting Station
Overcast Overcast  
Wind Chill: 53°   Ceiling: 3600
Heat Index: 53°   Visibility: 10mi
Dew Point: 44°   Wind: 14mph
Humidity: 71%   Direction: 300°WNW
Pressure: 29.88"   Gusts: 22mph
Location:  37.73°N, 76.54°W
Report Text: KW75 231135Z AUTO 30012G19KT 10SM SCT029 OVC036 12/07 A2988 RMK AO1 T01170066
Loading
Personal Weather Stations






























Interactive Weather Map New forecast layout! Learn more

10-Day Weather Forecast

Advertisements
Track Severe Weather on mobile